Time,TemperatureF,DewpointF,PressureIn,WindDirection,WindDirectionDegrees,WindSpeedMPH,WindSpeedGustMPH,Humidity,HourlyPrecipIn,Conditions,Clouds,dailyrainin,SoftwareType,DateUTC
2013-08-15 00:03:00,50.6,48.1,30.08,SSE,165,0.0,0.0,91,0.00,,,0.00,Wunderground v.1.15,2013-08-15 05:03:00,
2013-08-15 00:09:00,50.6,48.1,30.08,SSE,164,0.0,0.0,91,0.00,,,0.00,Wunderground v.1.15,2013-08-15 05:09:00,
2013-08-15 00:14:00,50.3,47.8,30.08,SSE,164,0.0,0.0,91,0.00,,,0.00,Wunderground v.1.15,2013-08-15 05:14:00,
2013-08-15 00:20:00,50.0,47.5,30.08,SSE,165,0.0,0.0,91,0.00,,,0.00,Wunderground v.1.15,2013-08-15 05:20:00,
2013-08-15 00:25:00,50.0,47.5,30.08,SSE,164,0.0,0.0,91,0.00,,,0.00,Wunderground v.1.15,2013-08-15 05:25:00,
2013-08-15 00:31:00,49.9,47.4,30.08,SSE,164,0.0,0.0,91,0.00,,,0.00,Wunderground v.1.15,2013-08-15 05:31:00,
2013-08-15 00:36:00,49.8,47.3,30.08,SSE,165,0.0,0.0,91,0.00,,,0.00,Wunderground v.1.15,2013-08-15 05:36:00,
2013-08-15 00:42:00,49.5,47.0,30.08,SSE,164,0.0,0.0,91,0.00,,,0.00,Wunderground v.1.15,2013-08-15 05:42:00,
2013-08-15 00:47:00,49.3,46.8,30.08,SSE,164,0.0,0.0,91,0.00,,,0.00,Wunderground v.1.15,2013-08-15 05:47:00,
2013-08-15 00:53:00,49.1,46.6,30.08,SSE,164,0.0,0.0,91,0.00,,,0.00,Wunderground v.1.15,2013-08-15 05:53:00,
2013-08-15 00:58:00,48.9,46.4,30.07,SSE,165,0.0,0.0,91,0.00,,,0.00,Wunderground v.1.15,2013-08-15 05:58:00,
2013-08-15 01:03:00,48.6,46.1,30.07,SSE,164,0.0,0.0,91,0.00,,,0.00,Wunderground v.1.15,2013-08-15 06:03:00,
2013-08-15 01:09:00,48.5,46.0,30.07,SSE,165,0.0,0.0,91,0.00,,,0.00,Wunderground v.1.15,2013-08-15 06:09:00,
2013-08-15 01:15:00,48.5,46.0,30.07,SSE,164,0.0,0.0,91,0.00,,,0.00,Wunderground v.1.15,2013-08-15 06:15:00,
2013-08-15 01:20:00,48.5,46.0,30.07,SSE,164,0.0,0.0,91,0.00,,,0.00,Wunderground v.1.15,2013-08-15 06:20:00,
2013-08-15 01:25:00,48.4,46.2,30.07,SSE,164,0.0,0.0,92,0.00,,,0.00,Wunderground v.1.15,2013-08-15 06:25:00,
2013-08-15 01:31:00,48.3,46.1,30.07,SSE,164,0.0,0.0,92,0.00,,,0.00,Wunderground v.1.15,2013-08-15 06:31:00,
2013-08-15 01:36:00,48.1,45.9,30.07,SSE,165,0.0,0.0,92,0.00,,,0.00,Wunderground v.1.15,2013-08-15 06:36:00,
2013-08-15 01:42:00,47.9,45.4,30.07,SSE,165,0.0,0.0,91,0.00,,,0.00,Wunderground v.1.15,2013-08-15 06:42:00,
2013-08-15 01:48:00,47.8,45.6,30.07,SSE,165,0.0,0.0,92,0.00,,,0.00,Wunderground v.1.15,2013-08-15 06:48:00,
2013-08-15 01:54:00,47.8,45.6,30.07,SSE,165,0.0,0.0,92,0.00,,,0.00,Wunderground v.1.15,2013-08-15 06:54:00,
2013-08-15 02:00:00,47.9,45.7,30.06,SSE,165,0.0,0.0,92,0.00,,,0.00,Wunderground v.1.15,2013-08-15 07:00:00,
2013-08-15 02:01:00,47.8,45.6,30.06,SSE,165,0.0,0.0,92,0.00,,,0.00,Wunderground v.1.15,2013-08-15 07:01:00,
2013-08-15 02:06:00,47.7,45.5,30.06,SSE,165,0.0,0.0,92,0.00,,,0.00,Wunderground v.1.15,2013-08-15 07:06:00,
2013-08-15 02:11:00,47.5,45.3,30.07,SSE,164,0.0,0.0,92,0.00,,,0.00,Wunderground v.1.15,2013-08-15 07:11:00,
2013-08-15 02:16:00,47.4,45.2,30.06,SSE,164,0.0,0.0,92,0.00,,,0.00,Wunderground v.1.15,2013-08-15 07:16:00,
2013-08-15 02:22:00,47.6,45.4,30.06,SSE,165,0.0,0.0,92,0.00,,,0.00,Wunderground v.1.15,2013-08-15 07:22:00,
2013-08-15 02:27:00,47.6,45.4,30.06,SSE,164,0.0,0.0,92,0.00,,,0.00,Wunderground v.1.15,2013-08-15 07:27:00,
2013-08-15 02:32:00,47.5,45.3,30.06,SSE,165,0.0,0.0,92,0.00,,,0.00,Wunderground v.1.15,2013-08-15 07:32:00,
2013-08-15 02:37:00,47.4,45.2,30.06,SSE,165,0.0,0.0,92,0.00,,,0.00,Wunderground v.1.15,2013-08-15 07:37:00,
2013-08-15 02:42:00,47.3,45.1,30.06,SSE,165,0.0,0.0,92,0.00,,,0.00,Wunderground v.1.15,2013-08-15 07:42:00,
2013-08-15 02:47:00,47.2,45.0,30.06,SSE,164,0.0,0.0,92,0.00,,,0.00,Wunderground v.1.15,2013-08-15 07:47:00,
2013-08-15 02:52:00,47.1,44.9,30.06,SSE,165,0.0,0.0,92,0.00,,,0.00,Wunderground v.1.15,2013-08-15 07:52:00,
2013-08-15 02:57:00,47.1,44.9,30.06,SSE,164,0.0,0.0,92,0.00,,,0.00,Wunderground v.1.15,2013-08-15 07:57:00,
2013-08-15 03:02:00,47.2,45.0,30.05,SSE,165,0.0,0.0,92,0.00,,,0.00,Wunderground v.1.15,2013-08-15 08:02:00,
2013-08-15 03:07:00,47.2,45.0,30.05,SSE,165,0.0,0.0,92,0.00,,,0.00,Wunderground v.1.15,2013-08-15 08:07:00,
2013-08-15 03:12:00,47.1,44.9,30.05,SSE,164,0.0,0.0,92,0.00,,,0.00,Wunderground v.1.15,2013-08-15 08:12:00,
2013-08-15 03:17:00,46.9,44.7,30.05,SSE,165,0.0,0.0,92,0.00,,,0.00,Wunderground v.1.15,2013-08-15 08:17:00,
2013-08-15 03:22:00,46.7,44.5,30.05,SSE,165,0.0,0.0,92,0.00,,,0.00,Wunderground v.1.15,2013-08-15 08:22:00,
2013-08-15 03:27:00,46.4,44.2,30.05,SSE,164,0.0,0.0,92,0.00,,,0.00,Wunderground v.1.15,2013-08-15 08:27:00,
2013-08-15 03:32:00,45.9,43.7,30.05,SSE,165,0.0,0.0,92,0.00,,,0.00,Wunderground v.1.15,2013-08-15 08:32:00,
2013-08-15 03:37:00,45.7,43.5,30.05,SSE,165,0.0,0.0,92,0.00,,,0.00,Wunderground v.1.15,2013-08-15 08:37:00,
2013-08-15 03:42:00,45.6,43.4,30.06,SSE,164,0.0,0.0,92,0.00,,,0.00,Wunderground v.1.15,2013-08-15 08:42:00,
2013-08-15 03:47:00,45.6,43.4,30.06,SSE,165,0.0,0.0,92,0.00,,,0.00,Wunderground v.1.15,2013-08-15 08:47:00,
2013-08-15 03:52:00,45.7,43.5,30.06,SSE,164,0.0,0.0,92,0.00,,,0.00,Wunderground v.1.15,2013-08-15 08:52:00,
2013-08-15 03:57:00,45.6,43.4,30.06,SSE,164,0.0,0.0,92,0.00,,,0.00,Wunderground v.1.15,2013-08-15 08:57:00,
2013-08-15 04:02:00,45.5,43.3,30.06,SSE,165,0.0,0.0,92,0.00,,,0.00,Wunderground v.1.15,2013-08-15 09:02:00,
2013-08-15 04:07:00,45.4,43.2,30.06,SSE,165,0.0,0.0,92,0.00,,,0.00,Wunderground v.1.15,2013-08-15 09:07:00,
2013-08-15 04:12:00,45.6,43.4,30.06,SSE,165,0.0,0.0,92,0.00,,,0.00,Wunderground v.1.15,2013-08-15 09:12:00,
2013-08-15 04:17:00,45.5,43.3,30.06,SSE,164,0.0,0.0,92,0.00,,,0.00,Wunderground v.1.15,2013-08-15 09:17:00,
2013-08-15 04:22:00,45.6,43.4,30.06,SSE,165,0.0,0.0,92,0.00,,,0.00,Wunderground v.1.15,2013-08-15 09:22:00,
2013-08-15 04:27:00,45.8,43.6,30.06,SSE,165,0.0,0.0,92,0.00,,,0.00,Wunderground v.1.15,2013-08-15 09:27:00,
2013-08-15 04:32:00,45.9,43.7,30.06,SSE,164,0.0,0.0,92,0.00,,,0.01,Wunderground v.1.15,2013-08-15 09:32:00,
2013-08-15 04:37:00,46.1,43.9,30.06,SSE,165,0.0,0.0,92,0.00,,,0.01,Wunderground v.1.15,2013-08-15 09:37:00,
2013-08-15 04:42:00,46.2,44.0,30.06,SSE,164,3.0,3.0,92,0.00,,,0.01,Wunderground v.1.15,2013-08-15 09:42:00,
2013-08-15 04:48:00,46.3,44.1,30.06,SSE,165,2.0,4.0,92,0.00,,,0.01,Wunderground v.1.15,2013-08-15 09:48:00,
2013-08-15 04:53:00,46.5,44.3,30.06,SSE,165,0.0,2.0,92,0.00,,,0.01,Wunderground v.1.15,2013-08-15 09:53:00,
2013-08-15 04:58:00,46.7,44.8,30.06,SSE,164,2.0,2.0,93,0.00,,,0.01,Wunderground v.1.15,2013-08-15 09:58:00,
2013-08-15 05:03:00,46.7,44.8,30.06,SSE,165,0.0,1.0,93,0.00,,,0.01,Wunderground v.1.15,2013-08-15 10:03:00,
2013-08-15 05:08:00,46.7,44.5,30.07,SSE,165,0.0,1.0,92,0.00,,,0.01,Wunderground v.1.15,2013-08-15 10:08:00,
2013-08-15 05:13:00,47.0,44.8,30.07,SSE,164,0.0,0.0,92,0.00,,,0.01,Wunderground v.1.15,2013-08-15 10:13:00,
2013-08-15 05:18:00,47.3,45.4,30.07,SSE,164,0.0,0.0,93,0.00,,,0.01,Wunderground v.1.15,2013-08-15 10:18:00,
2013-08-15 05:23:00,47.4,45.5,30.06,SSE,165,0.0,0.0,93,0.00,,,0.01,Wunderground v.1.15,2013-08-15 10:23:00,
2013-08-15 05:28:00,47.5,45.6,30.06,SSE,165,0.0,0.0,93,0.00,,,0.01,Wunderground v.1.15,2013-08-15 10:28:00,
2013-08-15 05:33:00,47.7,45.8,30.06,SSE,165,0.0,0.0,93,0.00,,,0.01,Wunderground v.1.15,2013-08-15 10:33:00,
2013-08-15 05:38:00,47.7,45.8,30.06,SSE,165,0.0,0.0,93,0.00,,,0.01,Wunderground v.1.15,2013-08-15 10:38:00,
2013-08-15 05:43:00,47.6,45.7,30.06,SSE,165,0.0,0.0,93,0.00,,,0.01,Wunderground v.1.15,2013-08-15 10:43:00,
2013-08-15 05:48:00,48.0,46.1,30.06,SSE,165,0.0,0.0,93,0.00,,,0.01,Wunderground v.1.15,2013-08-15 10:48:00,
2013-08-15 05:53:00,48.0,46.1,30.06,SSE,164,0.0,0.0,93,0.00,,,0.01,Wunderground v.1.15,2013-08-15 10:53:00,
2013-08-15 05:58:00,47.8,45.9,30.06,SSE,165,0.0,0.0,93,0.00,,,0.01,Wunderground v.1.15,2013-08-15 10:58:00,
2013-08-15 06:03:00,48.0,46.1,30.06,SSE,165,0.0,0.0,93,0.00,,,0.01,Wunderground v.1.15,2013-08-15 11:03:00,
2013-08-15 06:08:00,48.5,46.6,30.07,SSE,164,0.0,0.0,93,0.00,,,0.01,Wunderground v.1.15,2013-08-15 11:08:00,
2013-08-15 06:13:00,48.3,46.4,30.07,SSE,165,0.0,0.0,93,0.00,,,0.01,Wunderground v.1.15,2013-08-15 11:13:00,
2013-08-15 06:18:00,48.2,46.3,30.07,SSE,164,0.0,0.0,93,0.00,,,0.01,Wunderground v.1.15,2013-08-15 11:18:00,
2013-08-15 06:23:00,48.1,46.2,30.06,SSE,165,0.0,0.0,93,0.00,,,0.01,Wunderground v.1.15,2013-08-15 11:23:00,
2013-08-15 06:28:00,48.4,46.5,30.06,SSE,165,0.0,0.0,93,0.00,,,0.01,Wunderground v.1.15,2013-08-15 11:28:00,
2013-08-15 06:33:00,48.7,46.8,30.06,SSE,165,0.0,0.0,93,0.00,,,0.01,Wunderground v.1.15,2013-08-15 11:33:00,
2013-08-15 06:38:00,49.0,47.1,30.06,SSE,165,0.0,0.0,93,0.00,,,0.01,Wunderground v.1.15,2013-08-15 11:38:00,
2013-08-15 06:44:00,49.6,47.7,30.06,SSE,165,0.0,0.0,93,0.00,,,0.01,Wunderground v.1.15,2013-08-15 11:44:00,
2013-08-15 06:49:00,49.9,48.0,30.06,SSE,165,0.0,0.0,93,0.00,,,0.01,Wunderground v.1.15,2013-08-15 11:49:00,
2013-08-15 06:54:00,50.4,48.5,30.06,SSE,164,0.0,0.0,93,0.00,,,0.01,Wunderground v.1.15,2013-08-15 11:54:00,
2013-08-15 06:59:00,51.2,49.2,30.06,SSE,165,0.0,0.0,93,0.00,,,0.01,Wunderground v.1.15,2013-08-15 11:59:00,
2013-08-15 07:04:00,51.7,49.7,30.06,SSE,164,0.0,0.0,93,0.00,,,0.01,Wunderground v.1.15,2013-08-15 12:04:00,
2013-08-15 07:09:00,52.0,50.0,30.06,SSE,165,0.0,0.0,93,0.00,,,0.01,Wunderground v.1.15,2013-08-15 12:09:00,
2013-08-15 07:14:00,52.3,50.3,30.06,SSE,164,0.0,0.0,93,0.00,,,0.01,Wunderground v.1.15,2013-08-15 12:14:00,
2013-08-15 07:19:00,52.4,50.4,30.06,SSE,164,0.0,0.0,93,0.00,,,0.01,Wunderground v.1.15,2013-08-15 12:19:00,
2013-08-15 07:24:00,52.6,50.6,30.06,SSE,165,0.0,0.0,93,0.00,,,0.01,Wunderground v.1.15,2013-08-15 12:24:00,
2013-08-15 07:29:00,52.9,50.9,30.06,SSE,165,0.0,0.0,93,0.00,,,0.01,Wunderground v.1.15,2013-08-15 12:29:00,
2013-08-15 07:34:00,53.1,51.1,30.06,SSE,165,0.0,0.0,93,0.00,,,0.01,Wunderground v.1.15,2013-08-15 12:34:00,
2013-08-15 07:39:00,53.4,51.4,30.07,SSE,165,0.0,0.0,93,0.00,,,0.01,Wunderground v.1.15,2013-08-15 12:39:00,
2013-08-15 07:44:00,53.7,51.7,30.07,SSE,165,0.0,0.0,93,0.00,,,0.01,Wunderground v.1.15,2013-08-15 12:44:00,
2013-08-15 07:49:00,54.0,52.3,30.07,SSE,164,0.0,0.0,94,0.00,,,0.01,Wunderground v.1.15,2013-08-15 12:49:00,
2013-08-15 07:54:00,54.1,52.4,30.07,SSE,164,0.0,0.0,94,0.00,,,0.01,Wunderground v.1.15,2013-08-15 12:54:00,
2013-08-15 07:59:00,54.3,52.3,30.07,SSE,165,0.0,0.0,93,0.00,,,0.01,Wunderground v.1.15,2013-08-15 12:59:00,
2013-08-15 08:04:00,54.5,52.5,30.07,SSE,165,0.0,0.0,93,0.00,,,0.01,Wunderground v.1.15,2013-08-15 13:04:00,
2013-08-15 08:09:00,54.8,53.1,30.07,SSE,165,0.0,0.0,94,0.00,,,0.01,Wunderground v.1.15,2013-08-15 13:09:00,
2013-08-15 08:14:00,55.3,53.3,30.07,SSE,165,0.0,0.0,93,0.00,,,0.01,Wunderground v.1.15,2013-08-15 13:14:00,
2013-08-15 08:19:00,55.8,53.8,30.07,SSE,165,0.0,0.0,93,0.00,,,0.01,Wunderground v.1.15,2013-08-15 13:19:00,
2013-08-15 08:24:00,56.2,54.5,30.07,SSE,165,0.0,0.0,94,0.00,,,0.01,Wunderground v.1.15,2013-08-15 13:24:00,
2013-08-15 08:29:00,56.6,54.9,30.07,SSE,165,0.0,0.0,94,0.00,,,0.01,Wunderground v.1.15,2013-08-15 13:29:00,
2013-08-15 08:34:00,56.8,55.1,30.07,SSE,164,0.0,1.0,94,0.00,,,0.01,Wunderground v.1.15,2013-08-15 13:34:00,
2013-08-15 08:39:00,57.0,55.3,30.07,SSE,165,0.0,1.0,94,0.00,,,0.01,Wunderground v.1.15,2013-08-15 13:39:00,
2013-08-15 08:44:00,57.3,55.6,30.07,SSE,165,0.0,0.0,94,0.00,,,0.01,Wunderground v.1.15,2013-08-15 13:44:00,
2013-08-15 08:49:00,57.5,55.8,30.07,SSE,164,0.0,0.0,94,0.00,,,0.01,Wunderground v.1.15,2013-08-15 13:49:00,
2013-08-15 08:54:00,57.9,56.2,30.07,SSE,165,0.0,2.0,94,0.00,,,0.01,Wunderground v.1.15,2013-08-15 13:54:00,
2013-08-15 08:59:00,58.4,56.7,30.07,SSE,164,0.0,2.0,94,0.00,,,0.01,Wunderground v.1.15,2013-08-15 13:59:00,
2013-08-15 09:04:00,58.0,56.3,30.07,SSE,164,0.0,5.0,94,0.00,,,0.01,Wunderground v.1.15,2013-08-15 14:04:00,
2013-08-15 09:09:00,58.2,56.5,30.07,SSE,164,2.0,5.0,94,0.00,,,0.01,Wunderground v.1.15,2013-08-15 14:09:00,
2013-08-15 09:14:00,58.2,56.5,30.07,SSE,165,1.0,4.0,94,0.00,,,0.01,Wunderground v.1.15,2013-08-15 14:14:00,
2013-08-15 09:19:00,58.7,57.0,30.07,SSE,164,2.0,4.0,94,0.00,,,0.01,Wunderground v.1.15,2013-08-15 14:19:00,
2013-08-15 09:24:00,59.3,57.3,30.07,SSE,165,3.0,4.0,93,0.00,,,0.01,Wunderground v.1.15,2013-08-15 14:24:00,
2013-08-15 09:29:00,59.7,57.7,30.07,SSE,165,4.0,7.0,93,0.00,,,0.01,Wunderground v.1.15,2013-08-15 14:29:00,
2013-08-15 09:34:00,59.6,57.6,30.07,SSE,164,2.0,6.0,93,0.00,,,0.01,Wunderground v.1.15,2013-08-15 14:34:00,
2013-08-15 09:39:00,59.9,57.9,30.07,SSE,165,3.0,6.0,93,0.00,,,0.01,Wunderground v.1.15,2013-08-15 14:39:00,
2013-08-15 09:44:00,60.5,58.5,30.07,SSE,165,3.0,4.0,93,0.00,,,0.01,Wunderground v.1.15,2013-08-15 14:44:00,
2013-08-15 09:50:00,61.2,58.9,30.07,SSE,165,2.0,6.0,92,0.00,,,0.01,Wunderground v.1.15,2013-08-15 14:50:00,
2013-08-15 09:55:00,62.1,59.7,30.07,SSE,165,0.0,4.0,92,0.00,,,0.01,Wunderground v.1.15,2013-08-15 14:55:00,
2013-08-15 10:00:00,62.7,60.0,30.07,SSE,164,3.0,4.0,91,0.00,,,0.01,Wunderground v.1.15,2013-08-15 15:00:00,
2013-08-15 10:05:00,62.5,59.5,30.07,SSE,165,2.0,6.0,90,0.00,,,0.01,Wunderground v.1.15,2013-08-15 15:05:00,
2013-08-15 10:10:00,62.5,58.9,30.07,SSE,164,2.0,4.0,88,0.00,,,0.01,Wunderground v.1.15,2013-08-15 15:10:00,
2013-08-15 10:15:00,63.4,59.5,30.06,SSE,165,5.0,6.0,87,0.00,,,0.01,Wunderground v.1.15,2013-08-15 15:15:00,
2013-08-15 10:20:00,63.6,59.0,30.06,SSE,165,4.0,7.0,85,0.00,,,0.01,Wunderground v.1.15,2013-08-15 15:20:00,
2013-08-15 10:25:00,64.1,59.2,30.06,SSE,164,5.0,9.0,84,0.00,,,0.01,Wunderground v.1.15,2013-08-15 15:25:00,
2013-08-15 10:30:00,64.4,58.8,30.06,SSE,165,6.0,7.0,82,0.00,,,0.01,Wunderground v.1.15,2013-08-15 15:30:00,
2013-08-15 10:35:00,64.5,58.5,30.06,SSE,164,6.0,10.0,81,0.00,,,0.01,Wunderground v.1.15,2013-08-15 15:35:00,
2013-08-15 10:40:00,64.6,58.6,30.07,SSE,165,2.0,5.0,81,0.00,,,0.01,Wunderground v.1.15,2013-08-15 15:40:00,
2013-08-15 10:45:00,64.9,58.2,30.06,SSE,165,7.0,8.0,79,0.00,,,0.01,Wunderground v.1.15,2013-08-15 15:45:00,
2013-08-15 10:50:00,65.2,58.9,30.06,SSE,164,7.0,7.0,80,0.00,,,0.01,Wunderground v.1.15,2013-08-15 15:50:00,
2013-08-15 10:55:00,66.3,59.6,30.06,SSE,165,8.0,10.0,79,0.00,,,0.01,Wunderground v.1.15,2013-08-15 15:55:00,
2013-08-15 11:02:00,65.9,58.5,30.06,SSE,165,7.0,7.0,77,0.00,,,0.01,Wunderground v.1.15,2013-08-15 16:02:00,
2013-08-15 11:07:00,65.3,57.9,30.06,SSE,165,5.0,8.0,77,0.00,,,0.01,Wunderground v.1.15,2013-08-15 16:07:00,
2013-08-15 11:12:00,65.6,58.6,30.06,SSE,165,3.0,5.0,78,0.00,,,0.01,Wunderground v.1.15,2013-08-15 16:12:00,
2013-08-15 11:17:00,65.5,58.1,30.06,SSE,165,2.0,6.0,77,0.00,,,0.01,Wunderground v.1.15,2013-08-15 16:17:00,
2013-08-15 11:22:00,65.6,58.6,30.06,SSE,165,2.0,10.0,78,0.00,,,0.01,Wunderground v.1.15,2013-08-15 16:22:00,
2013-08-15 11:28:00,66.5,58.7,30.06,SSE,165,3.0,10.0,76,0.00,,,0.01,Wunderground v.1.15,2013-08-15 16:28:00,
2013-08-15 11:33:00,66.3,58.1,30.05,SSE,164,3.0,7.0,75,0.00,,,0.01,Wunderground v.1.15,2013-08-15 16:33:00,
2013-08-15 11:38:00,66.3,58.5,30.05,SSE,164,6.0,7.0,76,0.00,,,0.01,Wunderground v.1.15,2013-08-15 16:38:00,
2013-08-15 11:43:00,65.7,57.6,30.05,SSE,165,2.0,6.0,75,0.00,,,0.01,Wunderground v.1.15,2013-08-15 16:43:00,
2013-08-15 11:48:00,65.4,57.3,30.05,SSE,165,5.0,6.0,75,0.00,,,0.01,Wunderground v.1.15,2013-08-15 16:48:00,
2013-08-15 11:53:00,65.4,57.6,30.05,SSE,165,0.0,5.0,76,0.00,,,0.01,Wunderground v.1.15,2013-08-15 16:53:00,
2013-08-15 11:58:00,65.4,57.6,30.05,SSE,165,2.0,7.0,76,0.00,,,0.01,Wunderground v.1.15,2013-08-15 16:58:00,
2013-08-15 12:03:00,65.5,57.7,30.05,SSE,165,4.0,7.0,76,0.00,,,0.01,Wunderground v.1.15,2013-08-15 17:03:00,
2013-08-15 12:08:00,65.8,58.0,30.05,SSE,164,2.0,7.0,76,0.00,,,0.01,Wunderground v.1.15,2013-08-15 17:08:00,
2013-08-15 12:13:00,66.0,58.2,30.05,SSE,164,4.0,4.0,76,0.00,,,0.01,Wunderground v.1.15,2013-08-15 17:13:00,
2013-08-15 12:18:00,66.0,57.5,30.05,SSE,165,6.0,8.0,74,0.00,,,0.01,Wunderground v.1.15,2013-08-15 17:18:00,
2013-08-15 12:23:00,65.8,57.3,30.05,SSE,165,3.0,6.0,74,0.00,,,0.01,Wunderground v.1.15,2013-08-15 17:23:00,
2013-08-15 12:28:00,65.9,57.7,30.05,SSE,165,3.0,6.0,75,0.00,,,0.01,Wunderground v.1.15,2013-08-15 17:28:00,
2013-08-15 12:33:00,66.2,58.0,30.05,SSE,164,5.0,6.0,75,0.00,,,0.01,Wunderground v.1.15,2013-08-15 17:33:00,
2013-08-15 12:38:00,66.4,58.2,30.05,SSE,165,3.0,6.0,75,0.00,,,0.01,Wunderground v.1.15,2013-08-15 17:38:00,
2013-08-15 12:44:00,66.5,58.3,30.05,SSE,164,3.0,5.0,75,0.00,,,0.01,Wunderground v.1.15,2013-08-15 17:44:00,
2013-08-15 12:49:00,66.8,58.6,30.04,SSE,164,4.0,6.0,75,0.00,,,0.01,Wunderground v.1.15,2013-08-15 17:49:00,
2013-08-15 12:55:00,66.8,57.9,30.04,SSE,164,6.0,6.0,73,0.00,,,0.01,Wunderground v.1.15,2013-08-15 17:55:00,
2013-08-15 13:00:00,67.0,58.1,30.04,SSE,165,3.0,4.0,73,0.00,,,0.01,Wunderground v.1.15,2013-08-15 18:00:00,
2013-08-15 13:05:00,67.0,58.1,30.04,SSE,165,4.0,6.0,73,0.00,,,0.01,Wunderground v.1.15,2013-08-15 18:05:00,
2013-08-15 13:11:00,67.3,58.0,30.04,SSE,164,4.0,4.0,72,0.00,,,0.01,Wunderground v.1.15,2013-08-15 18:11:00,
2013-08-15 13:16:00,67.7,58.3,30.04,SSE,165,5.0,8.0,72,0.00,,,0.01,Wunderground v.1.15,2013-08-15 18:16:00,
2013-08-15 13:21:00,67.6,57.5,30.04,SSE,164,3.0,8.0,70,0.00,,,0.01,Wunderground v.1.15,2013-08-15 18:21:00,
2013-08-15 13:27:00,67.7,58.0,30.04,SSE,164,6.0,8.0,71,0.00,,,0.01,Wunderground v.1.15,2013-08-15 18:27:00,
2013-08-15 13:32:00,67.6,57.9,30.04,SSE,165,1.0,7.0,71,0.00,,,0.01,Wunderground v.1.15,2013-08-15 18:32:00,
2013-08-15 13:37:00,67.6,58.2,30.04,SSE,165,7.0,9.0,72,0.00,,,0.01,Wunderground v.1.15,2013-08-15 18:37:00,
2013-08-15 13:42:00,67.6,58.6,30.04,SSE,165,4.0,8.0,73,0.00,,,0.01,Wunderground v.1.15,2013-08-15 18:42:00,
2013-08-15 13:47:00,67.6,57.9,30.03,SSE,164,6.0,12.0,71,0.00,,,0.01,Wunderground v.1.15,2013-08-15 18:47:00,
2013-08-15 13:52:00,67.9,58.5,30.04,SSE,165,6.0,8.0,72,0.00,,,0.01,Wunderground v.1.15,2013-08-15 18:52:00,
2013-08-15 13:57:00,67.9,57.4,30.04,SSE,165,6.0,11.0,69,0.00,,,0.01,Wunderground v.1.15,2013-08-15 18:57:00,
2013-08-15 14:03:00,67.7,56.8,30.04,SSE,147,7.0,8.0,68,0.00,,,0.01,Wunderground v.1.15,2013-08-15 19:03:00,
2013-08-15 14:08:00,67.7,57.6,30.04,SSE,147,6.0,9.0,70,0.00,,,0.01,Wunderground v.1.15,2013-08-15 19:08:00,
2013-08-15 14:13:00,67.6,57.1,30.04,SE,146,5.0,10.0,69,0.00,,,0.01,Wunderground v.1.15,2013-08-15 19:13:00,
2013-08-15 14:18:00,67.5,57.0,30.04,SE,146,5.0,10.0,69,0.00,,,0.01,Wunderground v.1.15,2013-08-15 19:18:00,
2013-08-15 14:23:00,67.4,56.9,30.04,SE,146,6.0,8.0,69,0.00,,,0.01,Wunderground v.1.15,2013-08-15 19:23:00,
2013-08-15 14:29:00,67.6,57.5,30.04,SE,146,4.0,9.0,70,0.00,,,0.01,Wunderground v.1.15,2013-08-15 19:29:00,
2013-08-15 14:34:00,67.7,57.2,30.03,SE,146,5.0,6.0,69,0.00,,,0.01,Wunderground v.1.15,2013-08-15 19:34:00,
2013-08-15 14:39:00,67.9,57.4,30.04,SE,146,5.0,11.0,69,0.00,,,0.01,Wunderground v.1.15,2013-08-15 19:39:00,
2013-08-15 14:44:00,67.7,56.8,30.04,SE,146,5.0,11.0,68,0.00,,,0.01,Wunderground v.1.15,2013-08-15 19:44:00,
2013-08-15 14:49:00,67.3,56.8,30.04,SE,146,8.0,12.0,69,0.00,,,0.01,Wunderground v.1.15,2013-08-15 19:49:00,
2013-08-15 14:54:00,67.1,56.6,30.04,SE,146,6.0,11.0,69,0.00,,,0.01,Wunderground v.1.15,2013-08-15 19:54:00,
2013-08-15 15:00:00,67.0,56.5,30.03,SE,146,5.0,5.0,69,0.00,,,0.01,Wunderground v.1.15,2013-08-15 20:00:00,
2013-08-15 15:06:00,67.2,57.1,30.03,SE,146,3.0,7.0,70,0.00,,,0.01,Wunderground v.1.15,2013-08-15 20:06:00,
2013-08-15 15:11:00,67.4,57.3,30.03,SE,146,2.0,7.0,70,0.00,,,0.01,Wunderground v.1.15,2013-08-15 20:11:00,
2013-08-15 15:16:00,67.5,56.6,30.03,SE,146,5.0,10.0,68,0.00,,,0.01,Wunderground v.1.15,2013-08-15 20:16:00,
2013-08-15 15:21:00,67.6,57.1,30.03,SE,146,4.0,6.0,69,0.00,,,0.01,Wunderground v.1.15,2013-08-15 20:21:00,
2013-08-15 15:26:00,67.6,57.5,30.03,SE,146,1.0,7.0,70,0.00,,,0.01,Wunderground v.1.15,2013-08-15 20:26:00,
2013-08-15 15:31:00,67.6,57.1,30.03,SE,146,3.0,4.0,69,0.00,,,0.01,Wunderground v.1.15,2013-08-15 20:31:00,
2013-08-15 15:36:00,67.9,58.1,30.03,SE,146,6.0,6.0,71,0.00,,,0.01,Wunderground v.1.15,2013-08-15 20:36:00,
2013-08-15 15:41:00,67.8,57.3,30.03,SE,146,6.0,8.0,69,0.00,,,0.01,Wunderground v.1.15,2013-08-15 20:41:00,
2013-08-15 15:46:00,67.6,56.7,30.03,SE,146,5.0,9.0,68,0.00,,,0.01,Wunderground v.1.15,2013-08-15 20:46:00,
2013-08-15 15:51:00,67.3,57.2,30.03,SE,146,0.0,5.0,70,0.00,,,0.01,Wunderground v.1.15,2013-08-15 20:51:00,
2013-08-15 15:57:00,67.2,57.1,30.03,SE,146,2.0,5.0,70,0.00,,,0.01,Wunderground v.1.15,2013-08-15 20:57:00,
2013-08-15 16:03:00,67.1,57.0,30.03,SE,146,4.0,6.0,70,0.00,,,0.01,Wunderground v.1.15,2013-08-15 21:03:00,
2013-08-15 16:08:00,66.7,57.0,30.03,SE,146,3.0,6.0,71,0.00,,,0.01,Wunderground v.1.15,2013-08-15 21:08:00,
2013-08-15 16:13:00,66.6,57.3,30.02,SE,146,0.0,5.0,72,0.00,,,0.01,Wunderground v.1.15,2013-08-15 21:13:00,
2013-08-15 16:18:00,66.5,57.2,30.03,SE,146,0.0,5.0,72,0.00,,,0.01,Wunderground v.1.15,2013-08-15 21:18:00,
2013-08-15 16:23:00,66.6,57.3,30.03,SE,146,0.0,0.0,72,0.00,,,0.01,Wunderground v.1.15,2013-08-15 21:23:00,
2013-08-15 16:28:00,66.9,57.2,30.02,SE,146,6.0,6.0,71,0.00,,,0.01,Wunderground v.1.15,2013-08-15 21:28:00,
2013-08-15 16:34:00,67.3,57.6,30.02,SE,146,4.0,5.0,71,0.00,,,0.01,Wunderground v.1.15,2013-08-15 21:34:00,
2013-08-15 16:39:00,67.6,57.9,30.02,SE,146,0.0,5.0,71,0.00,,,0.01,Wunderground v.1.15,2013-08-15 21:39:00,
2013-08-15 16:44:00,67.7,57.6,30.03,SE,146,0.0,4.0,70,0.00,,,0.01,Wunderground v.1.15,2013-08-15 21:44:00,
2013-08-15 16:49:00,67.6,57.5,30.03,SE,146,2.0,5.0,70,0.00,,,0.01,Wunderground v.1.15,2013-08-15 21:49:00,
2013-08-15 16:54:00,67.4,57.3,30.02,SE,146,2.0,5.0,70,0.00,,,0.01,Wunderground v.1.15,2013-08-15 21:54:00,
2013-08-15 17:00:00,67.5,57.8,30.02,SE,146,2.0,2.0,71,0.00,,,0.01,Wunderground v.1.15,2013-08-15 22:00:00,
2013-08-15 17:05:00,67.6,57.5,30.02,SE,146,3.0,6.0,70,0.00,,,0.01,Wunderground v.1.15,2013-08-15 22:05:00,
2013-08-15 17:10:00,67.7,57.6,30.03,SE,146,0.0,3.0,70,0.00,,,0.01,Wunderground v.1.15,2013-08-15 22:10:00,
2013-08-15 17:15:00,67.5,57.4,30.03,SE,146,3.0,6.0,70,0.00,,,0.01,Wunderground v.1.15,2013-08-15 22:15:00,
2013-08-15 17:20:00,67.2,57.1,30.03,SE,146,4.0,4.0,70,0.00,,,0.01,Wunderground v.1.15,2013-08-15 22:20:00,
2013-08-15 17:25:00,67.0,56.9,30.03,SE,146,1.0,5.0,70,0.00,,,0.01,Wunderground v.1.15,2013-08-15 22:25:00,
2013-08-15 17:30:00,66.9,57.2,30.03,SE,146,0.0,2.0,71,0.00,,,0.01,Wunderground v.1.15,2013-08-15 22:30:00,
2013-08-15 17:35:00,66.9,57.2,30.03,SE,146,0.0,4.0,71,0.00,,,0.01,Wunderground v.1.15,2013-08-15 22:35:00,
2013-08-15 17:40:00,66.9,57.2,30.03,SE,146,0.0,2.0,71,0.00,,,0.01,Wunderground v.1.15,2013-08-15 22:40:00,
2013-08-15 17:45:00,67.0,57.7,30.03,SE,146,1.0,3.0,72,0.00,,,0.01,Wunderground v.1.15,2013-08-15 22:45:00,
2013-08-15 17:50:00,67.0,58.1,30.03,SE,146,3.0,3.0,73,0.00,,,0.01,Wunderground v.1.15,2013-08-15 22:50:00,
2013-08-15 17:55:00,67.1,57.4,30.03,SE,146,1.0,5.0,71,0.00,,,0.01,Wunderground v.1.15,2013-08-15 22:55:00,
2013-08-15 18:00:00,67.2,57.5,30.03,SE,146,3.0,4.0,71,0.00,,,0.01,Wunderground v.1.15,2013-08-15 23:00:00,
2013-08-15 18:06:00,67.3,57.2,30.03,SE,146,2.0,5.0,70,0.00,,,0.01,Wunderground v.1.15,2013-08-15 23:06:00,
2013-08-15 18:11:00,67.3,57.2,30.03,SE,146,2.0,4.0,70,0.00,,,0.01,Wunderground v.1.15,2013-08-15 23:11:00,
2013-08-15 18:17:00,67.3,57.2,30.03,SE,146,2.0,5.0,70,0.00,,,0.01,Wunderground v.1.15,2013-08-15 23:17:00,
2013-08-15 18:22:00,67.4,57.3,30.02,SE,146,1.0,5.0,70,0.00,,,0.01,Wunderground v.1.15,2013-08-15 23:22:00,
2013-08-15 18:27:00,67.4,57.3,30.03,SE,146,4.0,6.0,70,0.00,,,0.01,Wunderground v.1.15,2013-08-15 23:27:00,
2013-08-15 18:32:00,67.3,57.2,30.03,SE,146,6.0,6.0,70,0.00,,,0.01,Wunderground v.1.15,2013-08-15 23:32:00,
2013-08-15 18:37:00,67.1,57.4,30.03,SE,146,7.0,7.0,71,0.00,,,0.01,Wunderground v.1.15,2013-08-15 23:37:00,
2013-08-15 18:42:00,66.8,57.1,30.03,SE,146,0.0,6.0,71,0.00,,,0.01,Wunderground v.1.15,2013-08-15 23:42:00,
2013-08-15 18:47:00,66.7,57.4,30.03,SE,146,4.0,6.0,72,0.00,,,0.01,Wunderground v.1.15,2013-08-15 23:47:00,
2013-08-15 18:52:00,66.5,57.2,30.03,SE,146,0.0,5.0,72,0.00,,,0.01,Wunderground v.1.15,2013-08-15 23:52:00,
2013-08-15 18:57:00,66.4,57.1,30.03,SE,146,2.0,5.0,72,0.00,,,0.01,Wunderground v.1.15,2013-08-15 23:57:00,
2013-08-15 19:02:00,66.3,57.4,30.03,SE,146,0.0,2.0,73,0.00,,,0.01,Wunderground v.1.15,2013-08-16 00:02:00,
2013-08-15 19:07:00,66.2,57.7,30.03,SE,146,0.0,2.0,74,0.00,,,0.01,Wunderground v.1.15,2013-08-16 00:07:00,
2013-08-15 19:12:00,66.1,57.9,30.03,SE,146,0.0,0.0,75,0.00,,,0.01,Wunderground v.1.15,2013-08-16 00:12:00,
2013-08-15 19:17:00,66.1,57.6,30.03,SE,146,0.0,4.0,74,0.00,,,0.01,Wunderground v.1.15,2013-08-16 00:17:00,
2013-08-15 19:22:00,66.0,57.8,30.03,SE,146,5.0,5.0,75,0.00,,,0.01,Wunderground v.1.15,2013-08-16 00:22:00,
2013-08-15 19:27:00,65.8,58.0,30.03,SE,146,5.0,6.0,76,0.00,,,0.01,Wunderground v.1.15,2013-08-16 00:27:00,
2013-08-15 19:32:00,65.5,58.1,30.03,SE,146,6.0,6.0,77,0.00,,,0.01,Wunderground v.1.15,2013-08-16 00:32:00,
2013-08-15 19:38:00,65.2,57.8,30.03,SE,146,1.0,7.0,77,0.00,,,0.01,Wunderground v.1.15,2013-08-16 00:38:00,
2013-08-15 19:43:00,65.0,58.0,30.04,SE,146,0.0,5.0,78,0.00,,,0.01,Wunderground v.1.15,2013-08-16 00:43:00,
2013-08-15 19:48:00,64.9,57.9,30.04,SE,146,2.0,5.0,78,0.00,,,0.01,Wunderground v.1.15,2013-08-16 00:48:00,
2013-08-15 19:53:00,64.6,57.9,30.03,SE,146,1.0,3.0,79,0.00,,,0.01,Wunderground v.1.15,2013-08-16 00:53:00,
2013-08-15 19:58:00,64.3,57.6,30.04,SE,146,0.0,4.0,79,0.00,,,0.01,Wunderground v.1.15,2013-08-16 00:58:00,
2013-08-15 20:03:00,64.0,57.4,30.04,SE,146,0.0,2.0,79,0.00,,,0.01,Wunderground v.1.15,2013-08-16 01:03:00,
2013-08-15 20:08:00,63.7,57.1,30.04,SE,146,0.0,2.0,79,0.00,,,0.01,Wunderground v.1.15,2013-08-16 01:08:00,
2013-08-15 20:13:00,63.4,56.8,30.04,SE,146,3.0,4.0,79,0.00,,,0.01,Wunderground v.1.15,2013-08-16 01:13:00,
2013-08-15 20:19:00,63.2,56.6,30.04,SE,146,1.0,4.0,79,0.00,,,0.01,Wunderground v.1.15,2013-08-16 01:19:00,
2013-08-15 20:24:00,63.0,56.7,30.05,SE,146,0.0,3.0,80,0.00,,,0.01,Wunderground v.1.15,2013-08-16 01:24:00,
2013-08-15 20:29:00,62.7,56.4,30.05,SE,146,0.0,3.0,80,0.00,,,0.01,Wunderground v.1.15,2013-08-16 01:29:00,
2013-08-15 20:35:00,62.4,56.5,30.05,SE,146,0.0,1.0,81,0.00,,,0.01,Wunderground v.1.15,2013-08-16 01:35:00,
2013-08-15 20:41:00,62.3,56.7,30.05,SE,146,0.0,1.0,82,0.00,,,0.01,Wunderground v.1.15,2013-08-16 01:41:00,
2013-08-15 20:46:00,62.3,56.7,30.05,SE,146,2.0,4.0,82,0.00,,,0.01,Wunderground v.1.15,2013-08-16 01:46:00,
2013-08-15 20:51:00,62.2,57.0,30.06,SE,146,3.0,3.0,83,0.00,,,0.01,Wunderground v.1.15,2013-08-16 01:51:00,
2013-08-15 20:56:00,62.2,57.0,30.06,SE,146,3.0,5.0,83,0.00,,,0.01,Wunderground v.1.15,2013-08-16 01:56:00,
2013-08-15 21:01:00,62.1,57.2,30.06,SE,146,3.0,4.0,84,0.00,,,0.01,Wunderground v.1.15,2013-08-16 02:01:00,
2013-08-15 21:06:00,62.1,57.2,30.06,SE,146,2.0,6.0,84,0.00,,,0.01,Wunderground v.1.15,2013-08-16 02:06:00,
2013-08-15 21:11:00,61.9,57.0,30.06,SE,146,1.0,4.0,84,0.00,,,0.01,Wunderground v.1.15,2013-08-16 02:11:00,
2013-08-15 21:16:00,61.8,57.2,30.07,SE,146,0.0,4.0,85,0.00,,,0.01,Wunderground v.1.15,2013-08-16 02:16:00,
2013-08-15 21:21:00,61.7,57.1,30.07,SE,146,0.0,1.0,85,0.00,,,0.01,Wunderground v.1.15,2013-08-16 02:21:00,
2013-08-15 21:26:00,61.5,56.9,30.07,SE,146,0.0,1.0,85,0.00,,,0.01,Wunderground v.1.15,2013-08-16 02:26:00,
2013-08-15 21:31:00,61.4,56.8,30.08,SE,146,0.0,0.0,85,0.00,,,0.01,Wunderground v.1.15,2013-08-16 02:31:00,
2013-08-15 21:36:00,61.2,56.7,30.08,SE,146,0.0,0.0,85,0.00,,,0.01,Wunderground v.1.15,2013-08-16 02:36:00,
2013-08-15 21:41:00,61.0,56.8,30.08,SE,146,0.0,0.0,86,0.00,,,0.01,Wunderground v.1.15,2013-08-16 02:41:00,
2013-08-15 21:46:00,60.9,56.7,30.09,SE,146,0.0,0.0,86,0.00,,,0.01,Wunderground v.1.15,2013-08-16 02:46:00,
2013-08-15 21:51:00,60.7,56.5,30.09,SE,146,0.0,0.0,86,0.00,,,0.01,Wunderground v.1.15,2013-08-16 02:51:00,
2013-08-15 21:56:00,60.5,56.3,30.09,SE,146,0.0,0.0,86,0.00,,,0.01,Wunderground v.1.15,2013-08-16 02:56:00,
2013-08-15 22:01:00,60.5,56.6,30.09,SE,146,0.0,0.0,87,0.00,,,0.01,Wunderground v.1.15,2013-08-16 03:01:00,
2013-08-15 22:06:00,60.4,56.5,30.09,SE,146,0.0,0.0,87,0.00,,,0.01,Wunderground v.1.15,2013-08-16 03:06:00,
2013-08-15 22:11:00,60.3,56.4,30.09,SE,146,0.0,0.0,87,0.00,,,0.01,Wunderground v.1.15,2013-08-16 03:11:00,
2013-08-15 22:16:00,60.2,56.3,30.09,SE,146,0.0,0.0,87,0.00,,,0.01,Wunderground v.1.15,2013-08-16 03:16:00,
2013-08-15 22:21:00,60.2,56.3,30.09,SE,146,0.0,0.0,87,0.00,,,0.01,Wunderground v.1.15,2013-08-16 03:21:00,
2013-08-15 22:26:00,60.1,56.2,30.09,SE,146,0.0,0.0,87,0.00,,,0.01,Wunderground v.1.15,2013-08-16 03:26:00,
2013-08-15 22:31:00,60.1,56.2,30.09,SE,146,0.0,0.0,87,0.00,,,0.01,Wunderground v.1.15,2013-08-16 03:31:00,
2013-08-15 22:36:00,60.1,56.2,30.09,SE,146,0.0,0.0,87,0.00,,,0.01,Wunderground v.1.15,2013-08-16 03:36:00,
2013-08-15 22:41:00,60.1,56.2,30.09,SE,146,0.0,0.0,87,0.00,,,0.01,Wunderground v.1.15,2013-08-16 03:41:00,
2013-08-15 22:46:00,60.0,56.1,30.09,SE,146,0.0,0.0,87,0.00,,,0.01,Wunderground v.1.15,2013-08-16 03:46:00,
2013-08-15 22:51:00,59.8,56.2,30.09,SE,146,0.0,0.0,88,0.00,,,0.01,Wunderground v.1.15,2013-08-16 03:51:00,
2013-08-15 22:56:00,59.7,56.1,30.09,SE,146,0.0,0.0,88,0.00,,,0.01,Wunderground v.1.15,2013-08-16 03:56:00,
2013-08-15 23:01:00,59.6,56.0,30.09,SE,146,0.0,0.0,88,0.00,,,0.01,Wunderground v.1.15,2013-08-16 04:01:00,
2013-08-15 23:02:00,59.6,56.0,30.09,SE,146,0.0,0.0,88,0.00,,,0.01,Wunderground v.1.15,2013-08-16 04:02:00,
2013-08-15 23:07:00,59.4,55.8,30.09,SE,146,0.0,0.0,88,0.00,,,0.01,Wunderground v.1.15,2013-08-16 04:07:00,
2013-08-15 23:12:00,59.4,56.2,30.09,SE,146,0.0,0.0,89,0.00,,,0.01,Wunderground v.1.15,2013-08-16 04:12:00,
2013-08-15 23:17:00,59.3,56.1,30.09,SE,146,0.0,0.0,89,0.00,,,0.01,Wunderground v.1.15,2013-08-16 04:17:00,
2013-08-15 23:22:00,59.3,56.1,30.09,SE,146,0.0,0.0,89,0.00,,,0.01,Wunderground v.1.15,2013-08-16 04:22:00,
2013-08-15 23:27:00,59.1,55.9,30.09,SE,146,0.0,0.0,89,0.00,,,0.01,Wunderground v.1.15,2013-08-16 04:27:00,
2013-08-15 23:32:00,59.0,55.8,30.09,SE,146,0.0,0.0,89,0.00,,,0.01,Wunderground v.1.15,2013-08-16 04:32:00,
2013-08-15 23:37:00,58.7,55.5,30.09,SE,146,0.0,0.0,89,0.00,,,0.01,Wunderground v.1.15,2013-08-16 04:37:00,
2013-08-15 23:42:00,58.3,55.1,30.09,SE,146,0.0,0.0,89,0.00,,,0.01,Wunderground v.1.15,2013-08-16 04:42:00,
2013-08-15 23:47:00,57.7,54.5,30.09,SE,146,0.0,0.0,89,0.00,,,0.01,Wunderground v.1.15,2013-08-16 04:47:00,
2013-08-15 23:52:00,57.0,53.8,30.09,SE,146,0.0,0.0,89,0.00,,,0.01,Wunderground v.1.15,2013-08-16 04:52:00,
2013-08-15 23:57:00,56.3,53.1,30.09,SE,146,0.0,0.0,89,0.00,,,0.01,Wunderground v.1.15,2013-08-16 04:57:00,